LFRV/VNE METAR and TAF weather

Enter ICAO airport designator
Station Type Date Time Source
LFRV METAR 2022/11/26 09:30 UTC NOAA

LFRV 260930Z AUTO 15007KT 9999 SCT022 SCT033 BKN150 10/09 Q1026


Station Type Date Time Source
LFRV Decoded METAR 2022/11/26 09:30 UTC NOAA

Station name not available
Nov 26, 2022 - 04:30 AM EST / 2022.11.26 0930 UTC
Wind: from the SSE (150 degrees) at 8 MPH (7 KT):0
Visibility: greater than 7 mile(s):0
Sky conditions: mostly cloudy
Temperature: 50 F (10 C)
Dew Point: 48 F (9 C)
Relative Humidity: 93%
Pressure (altimeter): 30.30 in. Hg (1026 hPa)
ob: LFRV 260930Z AUTO 15007KT 9999 SCT022 SCT033 BKN150 10/09 Q1026
cycle: 9

Station Type Date Time Source
LFRV TAF UTC NOAA

Error!

Example: see airport list